MUC | München Airways

Zeit Nach Flug-Nr.
17:05 Larnaca MAC915
05:00 Frankfurt am Main MUC100
Alle Abflüge →
EDDM 050050Z 23006KT CAVOK 15/12 Q1020 NOSIG

 LIVE MAP


DEPARTURES | ARRIVALS

Flug-Nr. ETD From To Status Gate (EDDM) In Progress
MUC100 15:45 Munich Frankfurt am Main BOOKED (MUC003) 107
MAC915 14:00 Leipzig Halle Larnaca BOOKED (MUC001) 901
MUC250 21:00 Vienna Munich LANDED (MUC314) 108
SUN748 19:30 East Midlands Palma De Mallorca LANDED (MUC320) 0

AKTUELLES

Weltweite Ziele

Wir fliegen sowohl kontinentale- als auch interkontinentale Ziele an

Flotte

München Airways ist mit einer der modernsten Flotten weltweit unterwegs

Real ATC

Wir fliegen auf dem Online-Netzwerk "IVAO". Nach Standardphrasen der DFS fliegen wir problemlos durch verschiedenste Lufträume

Soziales

Bei unserer Airline ist sowohl der Spass als auch die Beziehung zwischen den Piloten sehr wertvoll

Reale Flugrouten

Alle Routen werden von uns geprüft und täglich aktualisiert. Sommer- sowie Winterflugpläne bringen euch viel Abwechslung

Teamspeak 3

Mittels des Teamspeak 3 Servers können die Piloten zusammen fliegen oder sich gegenseitig austauschen

 LIVEBOARD

 KOMMENDE EVENTS

EventDatum

 NOTAMS


*/